sensor_id;sensor_type;location;lat;lon;timestamp;P1;durP1;ratioP1;P2;durP2;ratioP2
54929;SDS011;40833;53.238;6.576;2023-09-07T00:01:27;3.65;;;2.25;;
54929;SDS011;40833;53.238;6.576;2023-09-07T00:03:52;4.05;;;1.98;;
54929;SDS011;40833;53.238;6.576;2023-09-07T00:06:18;2.75;;;2.10;;
54929;SDS011;40833;53.238;6.576;2023-09-07T00:08:44;4.03;;;2.25;;
54929;SDS011;40833;53.238;6.576;2023-09-07T00:11:10;7.97;;;2.72;;
54929;SDS011;40833;53.238;6.576;2023-09-07T00:13:36;3.17;;;2.58;;
54929;SDS011;40833;53.238;6.576;2023-09-07T00:16:02;3.08;;;2.63;;
54929;SDS011;40833;53.238;6.576;2023-09-07T00:18:30;6.63;;;2.45;;
54929;SDS011;40833;53.238;6.576;2023-09-07T00:20:56;4.30;;;2.80;;
54929;SDS011;40833;53.238;6.576;2023-09-07T00:23:21;4.10;;;2.70;;
54929;SDS011;40833;53.238;6.576;2023-09-07T00:25:47;2.47;;;2.38;;
54929;SDS011;40833;53.238;6.576;2023-09-07T00:28:13;5.72;;;2.88;;
54929;SDS011;40833;53.238;6.576;2023-09-07T00:30:39;4.15;;;2.47;;
54929;SDS011;40833;53.238;6.576;2023-09-07T00:33:05;5.45;;;2.90;;
54929;SDS011;40833;53.238;6.576;2023-09-07T00:35:31;10.80;;;2.95;;
54929;SDS011;40833;53.238;6.576;2023-09-07T00:37:57;6.55;;;3.03;;
54929;SDS011;40833;53.238;6.576;2023-09-07T00:40:22;4.75;;;2.67;;
54929;SDS011;40833;53.238;6.576;2023-09-07T00:42:48;4.60;;;2.75;;
54929;SDS011;40833;53.238;6.576;2023-09-07T00:45:14;2.33;;;2.13;;
54929;SDS011;40833;53.238;6.576;2023-09-07T00:47:40;2.88;;;2.67;;
54929;SDS011;40833;53.238;6.576;2023-09-07T00:50:06;6.70;;;2.72;;
54929;SDS011;40833;53.238;6.576;2023-09-07T00:52:36;4.38;;;2.67;;
54929;SDS011;40833;53.238;6.576;2023-09-07T00:55:05;2.95;;;2.53;;
54929;SDS011;40833;53.238;6.576;2023-09-07T00:57:31;3.22;;;2.45;;
54929;SDS011;40833;53.238;6.576;2023-09-07T00:59:57;2.97;;;2.67;;
54929;SDS011;40833;53.238;6.576;2023-09-07T01:02:23;5.50;;;2.70;;
54929;SDS011;40833;53.238;6.576;2023-09-07T01:04:50;5.60;;;3.15;;
54929;SDS011;40833;53.238;6.576;2023-09-07T01:07:17;2.78;;;2.47;;
54929;SDS011;40833;53.238;6.576;2023-09-07T01:09:47;3.03;;;2.78;;
54929;SDS011;40833;53.238;6.576;2023-09-07T01:12:16;2.10;;;2.00;;
54929;SDS011;40833;53.238;6.576;2023-09-07T01:14:42;2.95;;;2.50;;
54929;SDS011;40833;53.238;6.576;2023-09-07T01:17:08;3.22;;;2.63;;
54929;SDS011;40833;53.238;6.576;2023-09-07T01:19:35;5.93;;;2.85;;
54929;SDS011;40833;53.238;6.576;2023-09-07T01:22:02;3.10;;;2.85;;
54929;SDS011;40833;53.238;6.576;2023-09-07T01:24:28;5.55;;;2.40;;
54929;SDS011;40833;53.238;6.576;2023-09-07T01:26:59;4.13;;;2.50;;
54929;SDS011;40833;53.238;6.576;2023-09-07T01:29:30;6.97;;;2.70;;
54929;SDS011;40833;53.238;6.576;2023-09-07T01:31:56;4.50;;;2.97;;
54929;SDS011;40833;53.238;6.576;2023-09-07T01:34:22;5.18;;;3.05;;
54929;SDS011;40833;53.238;6.576;2023-09-07T01:36:49;3.38;;;2.58;;
54929;SDS011;40833;53.238;6.576;2023-09-07T01:39:15;5.65;;;2.78;;
54929;SDS011;40833;53.238;6.576;2023-09-07T01:41:42;4.95;;;2.92;;
54929;SDS011;40833;53.238;6.576;2023-09-07T01:44:08;2.88;;;2.67;;
54929;SDS011;40833;53.238;6.576;2023-09-07T01:46:34;5.43;;;2.90;;
54929;SDS011;40833;53.238;6.576;2023-09-07T01:49:01;6.80;;;3.25;;
54929;SDS011;40833;53.238;6.576;2023-09-07T01:51:27;4.57;;;2.60;;
54929;SDS011;40833;53.238;6.576;2023-09-07T01:53:53;3.45;;;3.13;;
54929;SDS011;40833;53.238;6.576;2023-09-07T01:56:19;3.08;;;2.75;;
54929;SDS011;40833;53.238;6.576;2023-09-07T01:58:45;4.60;;;3.08;;
54929;SDS011;40833;53.238;6.576;2023-09-07T02:01:23;4.10;;;3.10;;
54929;SDS011;40833;53.238;6.576;2023-09-07T02:03:50;5.18;;;3.05;;
54929;SDS011;40833;53.238;6.576;2023-09-07T02:06:16;3.20;;;2.97;;
54929;SDS011;40833;53.238;6.576;2023-09-07T02:08:42;3.58;;;2.83;;
54929;SDS011;40833;53.238;6.576;2023-09-07T02:11:08;5.57;;;3.17;;
54929;SDS011;40833;53.238;6.576;2023-09-07T02:13:34;4.20;;;3.40;;
54929;SDS011;40833;53.238;6.576;2023-09-07T02:16:03;4.57;;;3.13;;
54929;SDS011;40833;53.238;6.576;2023-09-07T02:18:32;5.38;;;3.40;;
54929;SDS011;40833;53.238;6.576;2023-09-07T02:21:04;4.55;;;3.55;;
54929;SDS011;40833;53.238;6.576;2023-09-07T02:23:31;4.15;;;3.53;;
54929;SDS011;40833;53.238;6.576;2023-09-07T02:25:57;7.15;;;3.35;;
54929;SDS011;40833;53.238;6.576;2023-09-07T02:28:23;4.03;;;3.70;;
54929;SDS011;40833;53.238;6.576;2023-09-07T02:30:50;3.75;;;3.45;;
54929;SDS011;40833;53.238;6.576;2023-09-07T02:33:16;4.15;;;3.75;;
54929;SDS011;40833;53.238;6.576;2023-09-07T02:35:42;3.97;;;3.58;;
54929;SDS011;40833;53.238;6.576;2023-09-07T02:38:08;6.32;;;4.03;;
54929;SDS011;40833;53.238;6.576;2023-09-07T02:40:43;3.70;;;3.40;;
54929;SDS011;40833;53.238;6.576;2023-09-07T02:43:12;4.13;;;3.72;;
54929;SDS011;40833;53.238;6.576;2023-09-07T02:45:38;6.05;;;4.00;;
54929;SDS011;40833;53.238;6.576;2023-09-07T02:48:04;4.50;;;3.60;;
54929;SDS011;40833;53.238;6.576;2023-09-07T02:50:31;4.47;;;4.05;;
54929;SDS011;40833;53.238;6.576;2023-09-07T02:52:57;4.20;;;3.90;;
54929;SDS011;40833;53.238;6.576;2023-09-07T02:55:23;4.63;;;4.15;;
54929;SDS011;40833;53.238;6.576;2023-09-07T02:57:49;4.30;;;3.85;;
54929;SDS011;40833;53.238;6.576;2023-09-07T03:00:14;4.35;;;4.03;;
54929;SDS011;40833;53.238;6.576;2023-09-07T03:02:42;6.78;;;4.00;;
54929;SDS011;40833;53.238;6.576;2023-09-07T03:05:08;6.05;;;4.40;;
54929;SDS011;40833;53.238;6.576;2023-09-07T03:07:35;6.20;;;4.07;;
54929;SDS011;40833;53.238;6.576;2023-09-07T03:10:00;5.45;;;4.50;;
54929;SDS011;40833;53.238;6.576;2023-09-07T03:12:27;5.13;;;4.63;;
54929;SDS011;40833;53.238;6.576;2023-09-07T03:14:52;5.82;;;4.07;;
54929;SDS011;40833;53.238;6.576;2023-09-07T03:17:18;7.05;;;5.22;;
54929;SDS011;40833;53.238;6.576;2023-09-07T03:19:46;5.00;;;4.55;;
54929;SDS011;40833;53.238;6.576;2023-09-07T03:22:12;7.50;;;4.83;;
54929;SDS011;40833;53.238;6.576;2023-09-07T03:24:38;4.90;;;4.50;;
54929;SDS011;40833;53.238;6.576;2023-09-07T03:27:04;5.13;;;4.55;;
54929;SDS011;40833;53.238;6.576;2023-09-07T03:29:33;7.60;;;4.82;;
54929;SDS011;40833;53.238;6.576;2023-09-07T03:32:00;5.27;;;4.77;;
54929;SDS011;40833;53.238;6.576;2023-09-07T03:34:26;6.70;;;4.75;;
54929;SDS011;40833;53.238;6.576;2023-09-07T03:36:52;4.90;;;4.50;;
54929;SDS011;40833;53.238;6.576;2023-09-07T03:39:18;6.85;;;4.95;;
54929;SDS011;40833;53.238;6.576;2023-09-07T03:41:46;5.30;;;4.80;;
54929;SDS011;40833;53.238;6.576;2023-09-07T03:44:12;9.33;;;4.80;;
54929;SDS011;40833;53.238;6.576;2023-09-07T03:46:38;8.30;;;5.90;;
54929;SDS011;40833;53.238;6.576;2023-09-07T03:49:03;5.53;;;5.03;;
54929;SDS011;40833;53.238;6.576;2023-09-07T03:51:29;5.82;;;5.30;;
54929;SDS011;40833;53.238;6.576;2023-09-07T03:53:55;5.50;;;5.00;;
54929;SDS011;40833;53.238;6.576;2023-09-07T03:56:21;9.63;;;5.10;;
54929;SDS011;40833;53.238;6.576;2023-09-07T03:58:46;5.40;;;4.97;;
54929;SDS011;40833;53.238;6.576;2023-09-07T04:01:12;5.37;;;4.97;;
54929;SDS011;40833;53.238;6.576;2023-09-07T04:03:39;7.83;;;5.57;;
54929;SDS011;40833;53.238;6.576;2023-09-07T04:06:05;7.20;;;5.20;;
54929;SDS011;40833;53.238;6.576;2023-09-07T04:08:31;7.50;;;5.37;;
54929;SDS011;40833;53.238;6.576;2023-09-07T04:10:57;6.87;;;5.23;;
54929;SDS011;40833;53.238;6.576;2023-09-07T04:13:23;6.43;;;5.80;;
54929;SDS011;40833;53.238;6.576;2023-09-07T04:15:48;6.33;;;5.73;;
54929;SDS011;40833;53.238;6.576;2023-09-07T04:18:14;6.63;;;5.83;;
54929;SDS011;40833;53.238;6.576;2023-09-07T04:20:41;8.03;;;6.20;;
54929;SDS011;40833;53.238;6.576;2023-09-07T04:23:08;7.57;;;6.43;;
54929;SDS011;40833;53.238;6.576;2023-09-07T04:25:34;5.93;;;5.40;;
54929;SDS011;40833;53.238;6.576;2023-09-07T04:27:59;6.17;;;5.67;;
54929;SDS011;40833;53.238;6.576;2023-09-07T04:30:25;10.23;;;5.73;;
54929;SDS011;40833;53.238;6.576;2023-09-07T04:32:51;6.67;;;5.97;;
54929;SDS011;40833;53.238;6.576;2023-09-07T04:35:17;6.83;;;6.33;;
54929;SDS011;40833;53.238;6.576;2023-09-07T04:37:43;9.73;;;7.53;;
54929;SDS011;40833;53.238;6.576;2023-09-07T04:40:09;7.83;;;6.00;;
54929;SDS011;40833;53.238;6.576;2023-09-07T04:42:35;5.77;;;5.23;;
54929;SDS011;40833;53.238;6.576;2023-09-07T04:45:03;6.73;;;6.13;;
54929;SDS011;40833;53.238;6.576;2023-09-07T04:47:30;7.03;;;6.43;;
54929;SDS011;40833;53.238;6.576;2023-09-07T04:49:56;7.03;;;6.33;;
54929;SDS011;40833;53.238;6.576;2023-09-07T04:52:21;6.70;;;6.10;;
54929;SDS011;40833;53.238;6.576;2023-09-07T04:54:47;8.47;;;6.50;;
54929;SDS011;40833;53.238;6.576;2023-09-07T04:57:15;10.43;;;6.33;;
54929;SDS011;40833;53.238;6.576;2023-09-07T04:59:42;7.47;;;6.67;;
54929;SDS011;40833;53.238;6.576;2023-09-07T05:02:08;6.93;;;6.23;;
54929;SDS011;40833;53.238;6.576;2023-09-07T05:04:33;9.17;;;6.67;;
54929;SDS011;40833;53.238;6.576;2023-09-07T05:06:59;6.17;;;5.70;;
54929;SDS011;40833;53.238;6.576;2023-09-07T05:09:25;7.33;;;6.63;;
54929;SDS011;40833;53.238;6.576;2023-09-07T05:11:50;7.57;;;6.83;;
54929;SDS011;40833;53.238;6.576;2023-09-07T05:14:17;7.50;;;6.83;;
54929;SDS011;40833;53.238;6.576;2023-09-07T05:16:43;10.53;;;7.43;;
54929;SDS011;40833;53.238;6.576;2023-09-07T05:19:09;7.10;;;6.50;;
54929;SDS011;40833;53.238;6.576;2023-09-07T05:21:35;6.80;;;6.00;;
54929;SDS011;40833;53.238;6.576;2023-09-07T05:24:00;8.57;;;6.30;;
54929;SDS011;40833;53.238;6.576;2023-09-07T05:26:26;8.40;;;6.63;;
54929;SDS011;40833;53.238;6.576;2023-09-07T05:28:53;7.50;;;6.80;;
54929;SDS011;40833;53.238;6.576;2023-09-07T05:31:19;8.43;;;6.80;;
54929;SDS011;40833;53.238;6.576;2023-09-07T05:33:44;7.77;;;6.97;;
54929;SDS011;40833;53.238;6.576;2023-09-07T05:36:10;11.13;;;6.80;;
54929;SDS011;40833;53.238;6.576;2023-09-07T05:38:36;10.13;;;7.50;;
54929;SDS011;40833;53.238;6.576;2023-09-07T05:41:02;8.23;;;7.37;;
54929;SDS011;40833;53.238;6.576;2023-09-07T05:43:28;10.10;;;7.20;;
54929;SDS011;40833;53.238;6.576;2023-09-07T05:45:54;9.17;;;7.63;;
54929;SDS011;40833;53.238;6.576;2023-09-07T05:48:19;7.87;;;7.17;;
54929;SDS011;40833;53.238;6.576;2023-09-07T05:50:45;8.97;;;7.73;;
54929;SDS011;40833;53.238;6.576;2023-09-07T05:53:11;8.53;;;7.67;;
54929;SDS011;40833;53.238;6.576;2023-09-07T05:55:37;9.17;;;7.40;;
54929;SDS011;40833;53.238;6.576;2023-09-07T05:58:07;8.13;;;7.33;;
54929;SDS011;40833;53.238;6.576;2023-09-07T06:00:34;9.60;;;7.27;;
54929;SDS011;40833;53.238;6.576;2023-09-07T06:03:01;7.77;;;7.07;;
54929;SDS011;40833;53.238;6.576;2023-09-07T06:05:27;9.30;;;8.17;;
54929;SDS011;40833;53.238;6.576;2023-09-07T06:07:53;10.00;;;7.63;;
54929;SDS011;40833;53.238;6.576;2023-09-07T06:10:18;9.07;;;8.17;;
54929;SDS011;40833;53.238;6.576;2023-09-07T06:12:44;9.80;;;7.67;;
54929;SDS011;40833;53.238;6.576;2023-09-07T06:15:10;15.23;;;7.80;;
54929;SDS011;40833;53.238;6.576;2023-09-07T06:17:36;13.33;;;8.07;;
54929;SDS011;40833;53.238;6.576;2023-09-07T06:20:02;9.20;;;8.13;;
54929;SDS011;40833;53.238;6.576;2023-09-07T06:22:28;8.93;;;8.00;;
54929;SDS011;40833;53.238;6.576;2023-09-07T06:24:54;7.67;;;6.87;;
54929;SDS011;40833;53.238;6.576;2023-09-07T06:27:19;13.73;;;8.07;;
54929;SDS011;40833;53.238;6.576;2023-09-07T06:29:45;10.10;;;7.00;;
54929;SDS011;40833;53.238;6.576;2023-09-07T06:32:11;8.80;;;7.80;;
54929;SDS011;40833;53.238;6.576;2023-09-07T06:34:37;8.45;;;7.30;;
54929;SDS011;40833;53.238;6.576;2023-09-07T06:37:02;11.03;;;7.63;;
54929;SDS011;40833;53.238;6.576;2023-09-07T06:39:30;9.93;;;6.90;;
54929;SDS011;40833;53.238;6.576;2023-09-07T06:41:55;10.43;;;7.50;;
54929;SDS011;40833;53.238;6.576;2023-09-07T06:44:21;11.37;;;7.73;;
54929;SDS011;40833;53.238;6.576;2023-09-07T06:46:47;8.23;;;6.70;;
54929;SDS011;40833;53.238;6.576;2023-09-07T06:49:14;8.63;;;7.00;;
54929;SDS011;40833;53.238;6.576;2023-09-07T06:51:40;13.18;;;7.50;;
54929;SDS011;40833;53.238;6.576;2023-09-07T06:54:05;12.38;;;6.97;;
54929;SDS011;40833;53.238;6.576;2023-09-07T06:56:31;8.32;;;6.72;;
54929;SDS011;40833;53.238;6.576;2023-09-07T06:58:58;10.57;;;6.53;;
54929;SDS011;40833;53.238;6.576;2023-09-07T07:01:24;9.23;;;7.05;;
54929;SDS011;40833;53.238;6.576;2023-09-07T07:03:49;9.35;;;6.57;;
54929;SDS011;40833;53.238;6.576;2023-09-07T07:06:15;8.77;;;6.68;;
54929;SDS011;40833;53.238;6.576;2023-09-07T07:08:41;10.27;;;6.15;;
54929;SDS011;40833;53.238;6.576;2023-09-07T07:11:07;8.50;;;6.10;;
54929;SDS011;40833;53.238;6.576;2023-09-07T07:13:33;12.05;;;5.47;;
54929;SDS011;40833;53.238;6.576;2023-09-07T07:15:58;10.95;;;6.35;;
54929;SDS011;40833;53.238;6.576;2023-09-07T07:18:24;9.57;;;5.80;;
54929;SDS011;40833;53.238;6.576;2023-09-07T07:20:50;13.10;;;5.90;;
54929;SDS011;40833;53.238;6.576;2023-09-07T07:23:16;9.43;;;5.57;;
54929;SDS011;40833;53.238;6.576;2023-09-07T07:25:41;13.07;;;6.55;;
54929;SDS011;40833;53.238;6.576;2023-09-07T07:28:07;8.20;;;5.25;;
54929;SDS011;40833;53.238;6.576;2023-09-07T07:30:37;8.13;;;5.63;;
54929;SDS011;40833;53.238;6.576;2023-09-07T07:33:06;8.32;;;5.85;;
54929;SDS011;40833;53.238;6.576;2023-09-07T07:35:35;9.00;;;5.40;;
54929;SDS011;40833;53.238;6.576;2023-09-07T07:38:03;7.60;;;4.75;;
54929;SDS011;40833;53.238;6.576;2023-09-07T07:40:30;10.25;;;5.32;;
54929;SDS011;40833;53.238;6.576;2023-09-07T07:42:56;5.28;;;4.78;;
54929;SDS011;40833;53.238;6.576;2023-09-07T07:45:21;6.82;;;4.97;;
54929;SDS011;40833;53.238;6.576;2023-09-07T07:47:53;9.88;;;4.90;;
54929;SDS011;40833;53.238;6.576;2023-09-07T07:52:45;10.25;;;4.88;;
54929;SDS011;40833;53.238;6.576;2023-09-07T07:55:11;5.90;;;4.65;;
54929;SDS011;40833;53.238;6.576;2023-09-07T07:57:37;6.05;;;4.68;;
54929;SDS011;40833;53.238;6.576;2023-09-07T08:00:03;5.20;;;4.68;;
54929;SDS011;40833;53.238;6.576;2023-09-07T08:02:30;5.72;;;5.07;;
54929;SDS011;40833;53.238;6.576;2023-09-07T08:04:56;6.00;;;4.70;;
54929;SDS011;40833;53.238;6.576;2023-09-07T08:07:22;6.93;;;4.05;;
54929;SDS011;40833;53.238;6.576;2023-09-07T08:09:48;7.13;;;5.50;;
54929;SDS011;40833;53.238;6.576;2023-09-07T08:12:16;7.65;;;4.47;;
54929;SDS011;40833;53.238;6.576;2023-09-07T08:14:41;11.50;;;4.97;;
54929;SDS011;40833;53.238;6.576;2023-09-07T08:17:08;10.55;;;5.25;;
54929;SDS011;40833;53.238;6.576;2023-09-07T08:19:34;10.32;;;5.18;;
54929;SDS011;40833;53.238;6.576;2023-09-07T08:22:00;7.07;;;5.07;;
54929;SDS011;40833;53.238;6.576;2023-09-07T08:24:28;9.50;;;5.05;;
54929;SDS011;40833;53.238;6.576;2023-09-07T08:26:54;6.13;;;5.53;;
54929;SDS011;40833;53.238;6.576;2023-09-07T08:29:22;7.53;;;5.32;;
54929;SDS011;40833;53.238;6.576;2023-09-07T08:31:55;11.02;;;5.10;;
54929;SDS011;40833;53.238;6.576;2023-09-07T08:34:22;6.57;;;4.60;;
54929;SDS011;40833;53.238;6.576;2023-09-07T08:36:48;10.27;;;5.57;;
54929;SDS011;40833;53.238;6.576;2023-09-07T08:39:15;7.40;;;4.78;;
54929;SDS011;40833;53.238;6.576;2023-09-07T08:41:41;7.40;;;4.90;;
54929;SDS011;40833;53.238;6.576;2023-09-07T08:44:27;8.40;;;4.32;;
54929;SDS011;40833;53.238;6.576;2023-09-07T08:46:54;12.57;;;4.50;;
54929;SDS011;40833;53.238;6.576;2023-09-07T08:49:20;7.38;;;3.85;;
54929;SDS011;40833;53.238;6.576;2023-09-07T08:51:48;6.30;;;3.92;;
54929;SDS011;40833;53.238;6.576;2023-09-07T08:54:15;4.53;;;4.10;;
54929;SDS011;40833;53.238;6.576;2023-09-07T08:56:40;7.00;;;4.65;;
54929;SDS011;40833;53.238;6.576;2023-09-07T08:59:06;5.88;;;4.40;;
54929;SDS011;40833;53.238;6.576;2023-09-07T09:01:33;5.93;;;4.35;;
54929;SDS011;40833;53.238;6.576;2023-09-07T09:03:58;13.52;;;4.63;;
54929;SDS011;40833;53.238;6.576;2023-09-07T09:06:24;8.55;;;4.75;;
54929;SDS011;40833;53.238;6.576;2023-09-07T09:08:53;6.18;;;4.20;;
54929;SDS011;40833;53.238;6.576;2023-09-07T09:11:24;4.63;;;4.07;;
54929;SDS011;40833;53.238;6.576;2023-09-07T09:13:52;6.30;;;3.85;;
54929;SDS011;40833;53.238;6.576;2023-09-07T09:16:18;5.20;;;4.65;;
54929;SDS011;40833;53.238;6.576;2023-09-07T09:18:48;6.15;;;4.10;;
54929;SDS011;40833;53.238;6.576;2023-09-07T09:21:18;12.32;;;4.40;;
54929;SDS011;40833;53.238;6.576;2023-09-07T09:23:49;8.73;;;3.80;;
54929;SDS011;40833;53.238;6.576;2023-09-07T09:26:16;6.00;;;3.65;;
54929;SDS011;40833;53.238;6.576;2023-09-07T09:28:42;8.00;;;3.50;;
54929;SDS011;40833;53.238;6.576;2023-09-07T09:31:12;9.88;;;3.63;;
54929;SDS011;40833;53.238;6.576;2023-09-07T09:33:39;9.00;;;3.90;;
54929;SDS011;40833;53.238;6.576;2023-09-07T09:36:12;5.88;;;4.40;;
54929;SDS011;40833;53.238;6.576;2023-09-07T09:38:39;9.27;;;3.88;;
54929;SDS011;40833;53.238;6.576;2023-09-07T09:41:05;4.22;;;3.55;;
54929;SDS011;40833;53.238;6.576;2023-09-07T09:43:31;4.88;;;3.88;;
54929;SDS011;40833;53.238;6.576;2023-09-07T09:45:57;9.75;;;4.15;;
54929;SDS011;40833;53.238;6.576;2023-09-07T09:48:24;7.45;;;3.33;;
54929;SDS011;40833;53.238;6.576;2023-09-07T09:50:52;6.45;;;3.47;;
54929;SDS011;40833;53.238;6.576;2023-09-07T09:53:18;5.72;;;3.55;;
54929;SDS011;40833;53.238;6.576;2023-09-07T09:55:48;5.22;;;4.03;;
54929;SDS011;40833;53.238;6.576;2023-09-07T09:58:17;8.25;;;3.95;;
54929;SDS011;40833;53.238;6.576;2023-09-07T10:00:47;4.30;;;3.88;;
54929;SDS011;40833;53.238;6.576;2023-09-07T10:03:26;5.53;;;3.13;;
54929;SDS011;40833;53.238;6.576;2023-09-07T10:05:55;6.15;;;3.65;;
54929;SDS011;40833;53.238;6.576;2023-09-07T10:08:21;9.93;;;3.47;;
54929;SDS011;40833;53.238;6.576;2023-09-07T10:10:52;9.30;;;3.72;;
54929;SDS011;40833;53.238;6.576;2023-09-07T10:13:29;7.03;;;3.85;;
54929;SDS011;40833;53.238;6.576;2023-09-07T10:16:03;6.45;;;3.25;;
54929;SDS011;40833;53.238;6.576;2023-09-07T10:18:41;9.25;;;3.10;;
54929;SDS011;40833;53.238;6.576;2023-09-07T10:21:09;8.63;;;3.30;;
54929;SDS011;40833;53.238;6.576;2023-09-07T10:23:41;7.28;;;3.25;;
54929;SDS011;40833;53.238;6.576;2023-09-07T10:26:12;7.78;;;3.20;;
54929;SDS011;40833;53.238;6.576;2023-09-07T10:28:45;13.02;;;2.80;;
54929;SDS011;40833;53.238;6.576;2023-09-07T10:33:42;7.95;;;2.63;;
54929;SDS011;40833;53.238;6.576;2023-09-07T10:36:09;7.28;;;3.30;;
54929;SDS011;40833;53.238;6.576;2023-09-07T10:38:49;4.03;;;2.47;;
54929;SDS011;40833;53.238;6.576;2023-09-07T10:41:18;6.32;;;2.95;;
54929;SDS011;40833;53.238;6.576;2023-09-07T10:43:50;3.67;;;2.78;;
54929;SDS011;40833;53.238;6.576;2023-09-07T10:46:18;13.93;;;3.00;;
54929;SDS011;40833;53.238;6.576;2023-09-07T10:48:51;3.67;;;2.45;;
54929;SDS011;40833;53.238;6.576;2023-09-07T10:51:21;8.15;;;2.30;;
54929;SDS011;40833;53.238;6.576;2023-09-07T10:53:48;7.18;;;2.60;;
54929;SDS011;40833;53.238;6.576;2023-09-07T10:56:14;5.00;;;2.90;;
54929;SDS011;40833;53.238;6.576;2023-09-07T10:58:40;5.60;;;2.65;;
54929;SDS011;40833;53.238;6.576;2023-09-07T11:01:07;5.28;;;2.42;;
54929;SDS011;40833;53.238;6.576;2023-09-07T11:03:36;3.83;;;2.15;;
54929;SDS011;40833;53.238;6.576;2023-09-07T11:06:04;5.05;;;2.63;;
54929;SDS011;40833;53.238;6.576;2023-09-07T11:08:35;6.15;;;2.80;;
54929;SDS011;40833;53.238;6.576;2023-09-07T11:11:04;4.80;;;2.70;;
54929;SDS011;40833;53.238;6.576;2023-09-07T11:13:30;5.00;;;2.40;;
54929;SDS011;40833;53.238;6.576;2023-09-07T11:15:56;4.28;;;2.38;;
54929;SDS011;40833;53.238;6.576;2023-09-07T11:18:23;4.00;;;2.67;;
54929;SDS011;40833;53.238;6.576;2023-09-07T11:20:50;3.78;;;2.20;;
54929;SDS011;40833;53.238;6.576;2023-09-07T11:23:17;2.55;;;2.05;;
54929;SDS011;40833;53.238;6.576;2023-09-07T11:25:43;3.70;;;2.67;;
54929;SDS011;40833;53.238;6.576;2023-09-07T11:28:09;7.05;;;2.70;;
54929;SDS011;40833;53.238;6.576;2023-09-07T11:30:48;4.28;;;2.58;;
54929;SDS011;40833;53.238;6.576;2023-09-07T11:33:15;5.38;;;2.80;;
54929;SDS011;40833;53.238;6.576;2023-09-07T11:35:41;3.72;;;2.53;;
54929;SDS011;40833;53.238;6.576;2023-09-07T11:38:07;5.40;;;2.08;;
54929;SDS011;40833;53.238;6.576;2023-09-07T11:40:36;4.75;;;2.38;;
54929;SDS011;40833;53.238;6.576;2023-09-07T11:43:01;5.53;;;2.80;;
54929;SDS011;40833;53.238;6.576;2023-09-07T11:45:27;4.95;;;2.20;;
54929;SDS011;40833;53.238;6.576;2023-09-07T11:47:53;2.47;;;2.15;;
54929;SDS011;40833;53.238;6.576;2023-09-07T11:50:19;3.63;;;2.42;;
54929;SDS011;40833;53.238;6.576;2023-09-07T11:52:45;5.32;;;2.47;;
54929;SDS011;40833;53.238;6.576;2023-09-07T11:55:13;10.18;;;2.80;;
54929;SDS011;40833;53.238;6.576;2023-09-07T11:57:39;8.73;;;2.58;;
54929;SDS011;40833;53.238;6.576;2023-09-07T12:00:06;6.68;;;2.53;;
54929;SDS011;40833;53.238;6.576;2023-09-07T12:02:35;3.90;;;2.30;;
54929;SDS011;40833;53.238;6.576;2023-09-07T12:05:00;4.47;;;2.58;;
54929;SDS011;40833;53.238;6.576;2023-09-07T12:07:28;2.83;;;2.63;;
54929;SDS011;40833;53.238;6.576;2023-09-07T12:09:55;10.63;;;2.70;;
54929;SDS011;40833;53.238;6.576;2023-09-07T12:12:23;5.95;;;2.60;;
54929;SDS011;40833;53.238;6.576;2023-09-07T12:14:48;3.05;;;2.28;;
54929;SDS011;40833;53.238;6.576;2023-09-07T12:17:14;4.88;;;2.70;;
54929;SDS011;40833;53.238;6.576;2023-09-07T12:19:40;7.00;;;2.50;;
54929;SDS011;40833;53.238;6.576;2023-09-07T12:22:07;4.20;;;2.53;;
54929;SDS011;40833;53.238;6.576;2023-09-07T12:24:33;4.65;;;2.33;;
54929;SDS011;40833;53.238;6.576;2023-09-07T12:26:59;8.48;;;2.70;;
54929;SDS011;40833;53.238;6.576;2023-09-07T12:29:25;4.53;;;2.40;;
54929;SDS011;40833;53.238;6.576;2023-09-07T12:31:51;6.45;;;2.85;;
54929;SDS011;40833;53.238;6.576;2023-09-07T12:34:16;8.65;;;2.47;;
54929;SDS011;40833;53.238;6.576;2023-09-07T12:36:42;2.97;;;2.53;;
54929;SDS011;40833;53.238;6.576;2023-09-07T12:39:08;3.72;;;2.40;;
54929;SDS011;40833;53.238;6.576;2023-09-07T12:41:33;2.97;;;2.70;;
54929;SDS011;40833;53.238;6.576;2023-09-07T12:43:59;6.88;;;2.45;;
54929;SDS011;40833;53.238;6.576;2023-09-07T12:46:25;6.32;;;2.40;;
54929;SDS011;40833;53.238;6.576;2023-09-07T12:48:50;4.53;;;2.42;;
54929;SDS011;40833;53.238;6.576;2023-09-07T12:51:16;9.38;;;2.33;;
54929;SDS011;40833;53.238;6.576;2023-09-07T12:53:42;3.53;;;2.70;;
54929;SDS011;40833;53.238;6.576;2023-09-07T12:56:07;4.75;;;2.47;;
54929;SDS011;40833;53.238;6.576;2023-09-07T12:58:33;3.05;;;2.65;;
54929;SDS011;40833;53.238;6.576;2023-09-07T13:00:59;5.82;;;2.22;;
54929;SDS011;40833;53.238;6.576;2023-09-07T13:03:24;4.90;;;2.17;;
54929;SDS011;40833;53.238;6.576;2023-09-07T13:05:50;4.80;;;2.75;;
54929;SDS011;40833;53.238;6.576;2023-09-07T13:08:16;2.97;;;2.42;;
54929;SDS011;40833;53.238;6.576;2023-09-07T13:10:41;7.78;;;2.50;;
54929;SDS011;40833;53.238;6.576;2023-09-07T13:13:07;6.22;;;2.38;;
54929;SDS011;40833;53.238;6.576;2023-09-07T13:15:33;3.45;;;2.22;;
54929;SDS011;40833;53.238;6.576;2023-09-07T13:17:59;4.18;;;2.83;;
54929;SDS011;40833;53.238;6.576;2023-09-07T13:20:25;3.88;;;2.10;;
54929;SDS011;40833;53.238;6.576;2023-09-07T13:22:51;5.82;;;2.20;;
54929;SDS011;40833;53.238;6.576;2023-09-07T13:25:17;7.00;;;2.35;;
54929;SDS011;40833;53.238;6.576;2023-09-07T13:27:43;8.38;;;2.20;;
54929;SDS011;40833;53.238;6.576;2023-09-07T13:30:09;4.68;;;2.50;;
54929;SDS011;40833;53.238;6.576;2023-09-07T13:32:37;5.60;;;2.72;;
54929;SDS011;40833;53.238;6.576;2023-09-07T13:35:03;5.10;;;2.17;;
54929;SDS011;40833;53.238;6.576;2023-09-07T13:37:30;3.50;;;2.10;;
54929;SDS011;40833;53.238;6.576;2023-09-07T13:39:55;9.48;;;2.03;;
54929;SDS011;40833;53.238;6.576;2023-09-07T13:42:21;6.35;;;2.42;;
54929;SDS011;40833;53.238;6.576;2023-09-07T13:44:47;4.18;;;2.05;;
54929;SDS011;40833;53.238;6.576;2023-09-07T13:47:14;5.03;;;2.20;;
54929;SDS011;40833;53.238;6.576;2023-09-07T13:49:40;4.18;;;2.58;;
54929;SDS011;40833;53.238;6.576;2023-09-07T13:52:06;4.40;;;2.38;;
54929;SDS011;40833;53.238;6.576;2023-09-07T13:54:31;5.32;;;2.33;;
54929;SDS011;40833;53.238;6.576;2023-09-07T13:56:57;3.30;;;2.03;;
54929;SDS011;40833;53.238;6.576;2023-09-07T13:59:22;4.30;;;2.28;;
54929;SDS011;40833;53.238;6.576;2023-09-07T14:01:53;3.53;;;2.20;;
54929;SDS011;40833;53.238;6.576;2023-09-07T14:04:19;3.78;;;2.00;;
54929;SDS011;40833;53.238;6.576;2023-09-07T14:06:45;4.38;;;2.58;;
54929;SDS011;40833;53.238;6.576;2023-09-07T14:09:11;4.38;;;2.22;;
54929;SDS011;40833;53.238;6.576;2023-09-07T14:11:37;2.70;;;2.13;;
54929;SDS011;40833;53.238;6.576;2023-09-07T14:14:03;4.13;;;2.08;;
54929;SDS011;40833;53.238;6.576;2023-09-07T14:16:29;2.78;;;2.10;;
54929;SDS011;40833;53.238;6.576;2023-09-07T14:18:54;4.68;;;1.95;;
54929;SDS011;40833;53.238;6.576;2023-09-07T14:23:56;6.28;;;1.98;;
54929;SDS011;40833;53.238;6.576;2023-09-07T14:27:38;2.10;;;1.60;;
54929;SDS011;40833;53.238;6.576;2023-09-07T14:30:28;2.15;;;1.83;;
54929;SDS011;40833;53.238;6.576;2023-09-07T14:32:54;6.63;;;2.20;;
54929;SDS011;40833;53.238;6.576;2023-09-07T14:35:19;5.93;;;2.00;;
54929;SDS011;40833;53.238;6.576;2023-09-07T14:37:45;4.13;;;1.92;;
54929;SDS011;40833;53.238;6.576;2023-09-07T14:40:11;2.58;;;1.90;;
54929;SDS011;40833;53.238;6.576;2023-09-07T14:42:38;4.57;;;2.08;;
54929;SDS011;40833;53.238;6.576;2023-09-07T14:45:04;2.97;;;1.83;;
54929;SDS011;40833;53.238;6.576;2023-09-07T14:47:30;4.28;;;1.77;;
54929;SDS011;40833;53.238;6.576;2023-09-07T14:49:56;4.60;;;2.33;;
54929;SDS011;40833;53.238;6.576;2023-09-07T14:52:22;2.97;;;2.08;;